Time,TemperatureF,DewpointF,PressureIn,WindDirection,WindDirectionDegrees,WindSpeedMPH,WindSpeedGustMPH,Humidity,HourlyPrecipIn,Conditions,Clouds,dailyrainin,SoftwareType,DateUTC
2013-10-08 00:01:00,65.1,63.0,29.97,NNE,12,0.0,0.0,93,0.00,,OVC044,0.00,VWS V14.01,2013-10-08 04:01:00,
2013-10-08 00:06:00,65.0,62.6,29.97,West,259,0.0,0.0,92,0.00,,OVC044,0.00,VWS V14.01,2013-10-08 04:06:00,
2013-10-08 00:11:00,65.0,62.6,29.97,West,259,0.0,0.0,92,0.00,,OVC044,0.00,VWS V14.01,2013-10-08 04:11:00,
2013-10-08 00:16:00,64.9,61.9,29.97,West,259,0.0,0.0,90,0.00,,OVC044,0.00,VWS V14.01,2013-10-08 04:16:00,
2013-10-08 00:21:00,64.8,62.1,29.97,West,259,0.0,1.0,91,0.00,,OVC044,0.00,VWS V14.01,2013-10-08 04:21:00,
2013-10-08 00:26:00,64.7,61.4,29.97,West,259,0.0,0.0,89,0.00,,OVC044,0.00,VWS V14.01,2013-10-08 04:26:00,
2013-10-08 00:31:00,64.6,61.3,29.97,West,259,0.0,0.0,89,0.00,,OVC044,0.00,VWS V14.01,2013-10-08 04:31:00,
2013-10-08 00:36:00,64.5,60.9,29.97,West,260,0.0,0.0,88,0.00,,OVC044,0.00,VWS V14.01,2013-10-08 04:36:00,
2013-10-08 00:41:00,64.5,60.9,29.97,West,260,0.0,0.0,88,0.00,,OVC044,0.00,VWS V14.01,2013-10-08 04:41:00,
2013-10-08 00:46:00,64.5,60.9,29.97,West,260,0.0,0.0,88,0.00,,OVC044,0.00,VWS V14.01,2013-10-08 04:46:00,
2013-10-08 00:51:00,64.5,61.2,29.97,West,260,0.0,0.0,89,0.00,,OVC044,0.00,VWS V14.01,2013-10-08 04:51:00,
2013-10-08 00:56:00,64.5,60.5,29.97,West,260,0.0,0.0,87,0.00,,OVC200,0.00,VWS V14.01,2013-10-08 04:56:00,
2013-10-08 01:01:00,64.4,60.8,29.98,West,260,0.0,0.0,88,0.00,,OVC200,0.00,VWS V14.01,2013-10-08 05:01:00,
2013-10-08 01:11:00,64.4,60.8,29.97,West,260,0.0,0.0,88,0.00,,OVC200,0.00,VWS V14.01,2013-10-08 05:11:00,
2013-10-08 01:16:00,64.3,60.7,29.97,West,260,0.0,0.0,88,0.00,,OVC200,0.00,VWS V14.01,2013-10-08 05:16:00,
2013-10-08 01:21:00,64.2,60.3,29.97,West,260,0.0,0.0,87,0.00,,OVC200,0.00,VWS V14.01,2013-10-08 05:21:00,
2013-10-08 01:26:00,64.2,60.6,29.97,West,260,0.0,0.0,88,0.00,,OVC200,0.00,VWS V14.01,2013-10-08 05:26:00,
2013-10-08 01:31:00,64.2,60.6,29.97,West,260,0.0,1.0,88,0.00,,OVC200,0.00,VWS V14.01,2013-10-08 05:31:00,
2013-10-08 01:36:00,64.2,60.6,29.97,West,260,0.0,1.0,88,0.00,,OVC200,0.00,VWS V14.01,2013-10-08 05:36:00,
2013-10-08 01:41:00,64.2,60.6,29.98,North,9,0.0,1.0,88,0.00,,OVC200,0.00,VWS V14.01,2013-10-08 05:41:00,
2013-10-08 01:46:00,64.1,60.5,29.98,NNE,19,0.0,1.0,88,0.00,,OVC200,0.00,VWS V14.01,2013-10-08 05:46:00,
2013-10-08 01:51:00,64.1,60.5,29.98,NNE,19,0.0,0.0,88,0.00,,OVC200,0.00,VWS V14.01,2013-10-08 05:51:00,
2013-10-08 01:56:00,64.1,60.5,29.98,NNE,13,0.0,2.0,88,0.00,,BKN200,0.00,VWS V14.01,2013-10-08 05:56:00,
2013-10-08 02:01:00,64.1,60.8,29.99,North,5,0.0,2.0,89,0.00,,BKN200,0.00,VWS V14.01,2013-10-08 06:01:00,
2013-10-08 02:06:00,64.1,60.8,29.99,NNE,26,2.0,2.0,89,0.00,,BKN200,0.00,VWS V14.01,2013-10-08 06:06:00,
2013-10-08 02:16:00,64.0,60.7,30.00,North,9,0.0,4.0,89,0.00,,BKN200,0.00,VWS V14.01,2013-10-08 06:16:00,
2013-10-08 02:21:00,64.1,60.8,30.00,NNE,20,0.0,2.0,89,0.00,,BKN200,0.00,VWS V14.01,2013-10-08 06:21:00,
2013-10-08 02:26:00,64.1,60.8,30.01,NNE,17,0.0,2.0,89,0.00,,BKN200,0.00,VWS V14.01,2013-10-08 06:26:00,
2013-10-08 02:31:00,64.0,59.7,30.01,North,5,1.0,3.0,86,0.00,,BKN200,0.00,VWS V14.01,2013-10-08 06:31:00,
2013-10-08 02:36:00,63.8,58.9,30.01,NNE,23,2.0,5.0,84,0.00,,BKN200,0.00,VWS V14.01,2013-10-08 06:36:00,
2013-10-08 02:41:00,63.5,57.2,30.02,WNW,293,1.0,5.0,80,0.00,,BKN200,0.00,VWS V14.01,2013-10-08 06:41:00,
2013-10-08 02:46:00,63.2,55.2,30.02,NE,41,0.0,4.0,75,0.00,,BKN200,0.00,VWS V14.01,2013-10-08 06:46:00,
2013-10-08 02:51:00,62.9,54.9,30.03,WNW,295,0.0,3.0,75,0.00,,BKN200,0.00,VWS V14.01,2013-10-08 06:51:00,
2013-10-08 02:56:00,62.5,54.1,30.03,North,4,0.0,4.0,74,0.00,,BKN200,0.00,VWS V14.01,2013-10-08 06:56:00,
2013-10-08 03:01:00,62.3,53.9,30.03,ENE,60,1.0,4.0,74,0.00,,BKN200,0.00,VWS V14.01,2013-10-08 07:01:00,
2013-10-08 03:11:00,61.9,54.3,30.03,NNE,17,0.0,2.0,76,0.00,,BKN200,0.00,VWS V14.01,2013-10-08 07:11:00,
2013-10-08 03:16:00,61.7,53.7,30.03,North,4,0.0,4.0,75,0.00,,BKN200,0.00,VWS V14.01,2013-10-08 07:16:00,
2013-10-08 03:21:00,61.6,54.0,30.03,NNE,23,1.0,3.0,76,0.00,,BKN200,0.00,VWS V14.01,2013-10-08 07:21:00,
2013-10-08 03:26:00,61.5,53.9,30.03,NNW,330,3.0,4.0,76,0.00,,BKN200,0.00,VWS V14.01,2013-10-08 07:26:00,
2013-10-08 03:31:00,61.5,53.9,30.04,North,4,0.0,3.0,76,0.00,,BKN200,0.00,VWS V14.01,2013-10-08 07:31:00,
2013-10-08 03:36:00,61.4,53.8,30.04,NNW,328,0.0,4.0,76,0.00,,BKN200,0.00,VWS V14.01,2013-10-08 07:36:00,
2013-10-08 03:41:00,61.3,53.7,30.04,NNE,30,0.0,1.0,76,0.00,,BKN200,0.00,VWS V14.01,2013-10-08 07:41:00,
2013-10-08 03:46:00,61.2,53.9,30.04,NW,317,1.0,1.0,77,0.00,,BKN200,0.00,VWS V14.01,2013-10-08 07:46:00,
2013-10-08 03:51:00,61.1,53.8,30.04,NNW,336,0.0,3.0,77,0.00,,BKN200,0.00,VWS V14.01,2013-10-08 07:51:00,
2013-10-08 03:56:00,61.2,53.2,30.04,North,352,1.0,6.0,75,0.00,,BKN200,0.00,VWS V14.01,2013-10-08 07:56:00,
2013-10-08 04:01:00,61.1,52.0,30.04,NNE,17,2.0,4.0,72,0.00,,BKN200,0.00,VWS V14.01,2013-10-08 08:01:00,
2013-10-08 04:11:00,61.0,51.5,30.03,West,279,2.0,4.0,71,0.00,,BKN200,0.00,VWS V14.01,2013-10-08 08:11:00,
2013-10-08 04:16:00,60.9,51.1,30.03,NE,39,0.0,3.0,70,0.00,,BKN200,0.00,VWS V14.01,2013-10-08 08:16:00,
2013-10-08 04:21:00,60.8,51.0,30.03,NW,309,1.0,3.0,70,0.00,,BKN200,0.00,VWS V14.01,2013-10-08 08:21:00,
2013-10-08 04:26:00,60.7,50.9,30.03,NE,34,2.0,3.0,70,0.00,,BKN200,0.00,VWS V14.01,2013-10-08 08:26:00,
2013-10-08 04:31:00,60.7,50.5,30.04,North,356,0.0,2.0,69,0.00,,BKN200,0.00,VWS V14.01,2013-10-08 08:31:00,
2013-10-08 04:36:00,60.6,50.8,30.04,East,93,0.0,4.0,70,0.00,,BKN200,0.00,VWS V14.01,2013-10-08 08:36:00,
2013-10-08 04:41:00,60.6,50.4,30.04,North,8,0.0,5.0,69,0.00,,BKN200,0.00,VWS V14.01,2013-10-08 08:41:00,
2013-10-08 04:46:00,60.5,49.9,30.04,NNE,22,1.0,4.0,68,0.00,,BKN200,0.00,VWS V14.01,2013-10-08 08:46:00,
2013-10-08 04:51:00,60.5,49.5,30.04,NNE,13,1.0,4.0,67,0.00,,BKN200,0.00,VWS V14.01,2013-10-08 08:51:00,
2013-10-08 04:56:00,60.5,49.5,30.05,North,9,2.0,4.0,67,0.00,,BKN200,0.00,VWS V14.01,2013-10-08 08:56:00,
2013-10-08 05:01:00,60.5,49.1,30.05,North,8,3.0,3.0,66,0.00,,BKN200,0.00,VWS V14.01,2013-10-08 09:01:00,
2013-10-08 05:11:00,60.5,50.3,30.05,NNE,23,0.0,2.0,69,0.00,,BKN200,0.00,VWS V14.01,2013-10-08 09:11:00,
2013-10-08 05:16:00,60.4,48.6,30.05,NNE,20,1.0,6.0,65,0.00,,BKN200,0.00,VWS V14.01,2013-10-08 09:16:00,
2013-10-08 05:21:00,60.4,48.6,30.05,NNE,17,0.0,4.0,65,0.00,,BKN200,0.00,VWS V14.01,2013-10-08 09:21:00,
2013-10-08 05:26:00,60.3,48.9,30.06,North,5,1.0,2.0,66,0.00,,BKN200,0.00,VWS V14.01,2013-10-08 09:26:00,
2013-10-08 05:31:00,60.3,48.9,30.06,NNW,348,1.0,2.0,66,0.00,,BKN200,0.00,VWS V14.01,2013-10-08 09:31:00,
2013-10-08 05:36:00,60.2,49.2,30.06,NNE,29,1.0,3.0,67,0.00,,BKN200,0.00,VWS V14.01,2013-10-08 09:36:00,
2013-10-08 05:46:00,60.2,48.8,30.08,NNE,15,0.0,4.0,66,0.00,,BKN200,0.00,VWS V14.01,2013-10-08 09:46:00,
2013-10-08 05:51:00,60.2,48.4,30.08,North,356,1.0,4.0,65,0.00,,BKN200,0.00,VWS V14.01,2013-10-08 09:51:00,
2013-10-08 06:01:00,60.1,49.1,30.07,North,2,1.0,5.0,67,0.00,,BKN200,0.00,VWS V14.01,2013-10-08 10:01:00,
2013-10-08 06:11:00,60.0,48.2,30.08,NNE,30,1.0,3.0,65,0.00,,BKN200,0.00,VWS V14.01,2013-10-08 10:11:00,
2013-10-08 06:16:00,60.0,49.4,30.07,NNE,32,1.0,2.0,68,0.00,,BKN200,0.00,VWS V14.01,2013-10-08 10:16:00,
2013-10-08 06:26:00,59.8,48.4,30.08,NNE,20,1.0,4.0,66,0.00,,BKN200,0.00,VWS V14.01,2013-10-08 10:26:00,
2013-10-08 06:36:00,59.7,48.3,30.09,NNE,26,2.0,3.0,66,0.00,,BKN200,0.00,VWS V14.01,2013-10-08 10:36:00,
2013-10-08 06:41:00,59.8,48.4,30.09,North,6,1.0,4.0,66,0.00,,BKN200,0.00,VWS V14.01,2013-10-08 10:41:00,
2013-10-08 06:46:00,59.8,48.4,30.10,NNE,17,0.0,2.0,66,0.00,,BKN200,0.00,VWS V14.01,2013-10-08 10:46:00,
2013-10-08 06:51:00,59.7,48.3,30.10,NNE,17,0.0,1.0,66,0.00,,BKN200,0.00,VWS V14.01,2013-10-08 10:51:00,
2013-10-08 06:56:00,59.6,48.6,30.10,NNE,18,0.0,1.0,67,0.00,,OVC060,0.00,VWS V14.01,2013-10-08 10:56:00,
2013-10-08 07:01:00,59.6,48.2,30.10,North,8,2.0,3.0,66,0.00,,OVC060,0.00,VWS V14.01,2013-10-08 11:01:00,
2013-10-08 07:06:00,59.7,49.1,30.09,ENE,77,1.0,5.0,68,0.00,,OVC060,0.00,VWS V14.01,2013-10-08 11:06:00,
2013-10-08 07:11:00,59.6,48.2,30.10,NW,321,0.0,3.0,66,0.00,,OVC060,0.00,VWS V14.01,2013-10-08 11:11:00,
2013-10-08 07:16:00,59.6,48.2,30.10,NNE,13,1.0,3.0,66,0.00,,OVC060,0.00,VWS V14.01,2013-10-08 11:16:00,
2013-10-08 07:26:00,59.5,48.2,30.10,North,356,0.0,2.0,66,0.00,,OVC060,0.00,VWS V14.01,2013-10-08 11:26:00,
2013-10-08 07:31:00,59.5,48.2,30.11,North,11,0.0,3.0,66,0.00,,OVC060,0.00,VWS V14.01,2013-10-08 11:31:00,
2013-10-08 07:41:00,59.5,48.5,30.10,NE,56,0.0,2.0,67,0.00,,OVC060,0.00,VWS V14.01,2013-10-08 11:41:00,
2013-10-08 07:46:00,59.5,48.5,30.11,North,1,0.0,2.0,67,0.00,,OVC060,0.00,VWS V14.01,2013-10-08 11:46:00,
2013-10-08 07:51:00,59.4,48.0,30.11,North,11,0.0,3.0,66,0.00,,OVC060,0.00,VWS V14.01,2013-10-08 11:51:00,
2013-10-08 08:01:00,59.5,48.5,30.12,NNE,33,1.0,3.0,67,0.00,,OVC250,0.00,VWS V14.01,2013-10-08 12:01:00,
2013-10-08 08:06:00,59.5,48.5,30.11,North,2,1.0,5.0,67,0.00,,OVC250,0.00,VWS V14.01,2013-10-08 12:06:00,
2013-10-08 08:11:00,59.5,48.5,30.12,North,354,0.0,2.0,67,0.00,,OVC250,0.00,VWS V14.01,2013-10-08 12:11:00,
2013-10-08 08:21:00,59.5,48.5,30.12,NNW,338,1.0,2.0,67,0.00,,OVC250,0.00,VWS V14.01,2013-10-08 12:21:00,
2013-10-08 08:31:00,59.4,48.5,30.12,North,4,1.0,2.0,67,0.00,,OVC250,0.00,VWS V14.01,2013-10-08 12:31:00,
2013-10-08 08:41:00,59.3,48.4,30.13,NNE,18,0.0,2.0,67,0.00,,OVC250,0.00,VWS V14.01,2013-10-08 12:41:00,
2013-10-08 08:46:00,59.3,49.1,30.13,ENE,74,1.0,1.0,69,0.00,,OVC250,0.00,VWS V14.01,2013-10-08 12:46:00,
2013-10-08 08:56:00,59.3,49.1,30.14,North,6,0.0,1.0,69,0.00,,BKN250,0.00,VWS V14.01,2013-10-08 12:56:00,
2013-10-08 09:01:00,59.3,48.8,30.14,NNE,20,0.0,4.0,68,0.00,,BKN250,0.00,VWS V14.01,2013-10-08 13:01:00,
2013-10-08 09:06:00,59.3,49.1,30.15,NE,35,0.0,2.0,69,0.00,,BKN250,0.00,VWS V14.01,2013-10-08 13:06:00,
2013-10-08 09:11:00,59.3,48.8,30.14,NNE,16,1.0,5.0,68,0.00,,BKN250,0.00,VWS V14.01,2013-10-08 13:11:00,
2013-10-08 09:21:00,59.3,48.8,30.15,NW,309,1.0,2.0,68,0.00,,BKN250,0.00,VWS V14.01,2013-10-08 13:21:00,
2013-10-08 09:26:00,59.3,48.8,30.15,NNE,32,0.0,4.0,68,0.00,,BKN250,0.00,VWS V14.01,2013-10-08 13:26:00,
2013-10-08 09:31:00,59.3,48.8,30.15,NNE,14,1.0,2.0,68,0.00,,BKN250,0.00,VWS V14.01,2013-10-08 13:31:00,
2013-10-08 09:36:00,59.2,48.7,30.15,ENE,77,0.0,3.0,68,0.00,,BKN250,0.00,VWS V14.01,2013-10-08 13:36:00,
2013-10-08 09:46:00,59.3,49.1,30.15,North,4,1.0,1.0,69,0.00,,BKN250,0.00,VWS V14.01,2013-10-08 13:46:00,
2013-10-08 09:51:00,59.2,49.4,30.15,North,10,0.0,4.0,70,0.00,,BKN250,0.00,VWS V14.01,2013-10-08 13:51:00,
2013-10-08 09:56:00,59.2,49.8,30.15,North,8,0.0,2.0,71,0.00,,BKN250,0.00,VWS V14.01,2013-10-08 13:56:00,
2013-10-08 10:01:00,59.2,49.4,30.16,East,87,1.0,1.0,70,0.00,,BKN250,0.00,VWS V14.01,2013-10-08 14:01:00,
2013-10-08 10:06:00,59.3,49.5,30.16,North,8,1.0,2.0,70,0.00,,BKN250,0.00,VWS V14.01,2013-10-08 14:06:00,
2013-10-08 10:16:00,59.4,49.6,30.16,North,350,0.0,2.0,70,0.00,,BKN250,0.00,VWS V14.01,2013-10-08 14:16:00,
2013-10-08 10:21:00,59.4,49.2,30.16,North,8,0.0,3.0,69,0.00,,BKN250,0.00,VWS V14.01,2013-10-08 14:21:00,
2013-10-08 10:26:00,59.5,49.3,30.16,North,354,1.0,4.0,69,0.00,,BKN250,0.00,VWS V14.01,2013-10-08 14:26:00,
2013-10-08 10:31:00,59.6,49.8,30.16,WNW,293,0.0,2.0,70,0.00,,BKN250,0.00,VWS V14.01,2013-10-08 14:31:00,
2013-10-08 10:36:00,59.7,49.5,30.16,NW,304,1.0,3.0,69,0.00,,BKN250,0.00,VWS V14.01,2013-10-08 14:36:00,
2013-10-08 10:46:00,59.7,49.5,30.16,ENE,68,2.0,3.0,69,0.00,,BKN250,0.00,VWS V14.01,2013-10-08 14:46:00,
2013-10-08 10:56:00,59.7,50.7,30.17,NNW,347,0.0,1.0,72,0.00,,BKN250,0.00,VWS V14.01,2013-10-08 14:56:00,
2013-10-08 11:01:00,59.8,50.0,30.17,North,2,1.0,1.0,70,0.00,,BKN250,0.00,VWS V14.01,2013-10-08 15:01:00,
2013-10-08 11:11:00,59.9,49.7,30.17,NNE,21,0.0,4.0,69,0.00,,BKN250,0.00,VWS V14.01,2013-10-08 15:11:00,
2013-10-08 11:16:00,60.0,50.2,30.16,North,5,1.0,4.0,70,0.00,,BKN250,0.00,VWS V14.01,2013-10-08 15:16:00,
2013-10-08 11:21:00,60.1,50.3,30.17,North,9,0.0,2.0,70,0.00,,BKN250,0.00,VWS V14.01,2013-10-08 15:21:00,
2013-10-08 11:26:00,60.3,50.9,30.17,ENE,73,0.0,1.0,71,0.00,,BKN250,0.00,VWS V14.01,2013-10-08 15:26:00,
2013-10-08 11:31:00,60.4,50.6,30.17,NNE,17,1.0,3.0,70,0.00,,BKN250,0.00,VWS V14.01,2013-10-08 15:31:00,
2013-10-08 11:36:00,60.4,51.0,30.17,NW,318,1.0,3.0,71,0.00,,BKN250,0.00,VWS V14.01,2013-10-08 15:36:00,
2013-10-08 11:41:00,60.4,50.2,30.17,North,9,2.0,4.0,69,0.00,,BKN250,0.00,VWS V14.01,2013-10-08 15:41:00,
2013-10-08 11:46:00,60.5,50.7,30.17,North,355,1.0,3.0,70,0.00,,BKN250,0.00,VWS V14.01,2013-10-08 15:46:00,
2013-10-08 11:51:00,60.5,50.7,30.16,North,6,0.0,7.0,70,0.00,,BKN250,0.00,VWS V14.01,2013-10-08 15:51:00,
2013-10-08 11:56:00,60.6,50.8,30.16,North,10,1.0,3.0,70,0.00,,BKN250,0.00,VWS V14.01,2013-10-08 15:56:00,
2013-10-08 12:01:00,60.7,50.9,30.16,NW,307,0.0,3.0,70,0.00,,BKN250,0.00,VWS V14.01,2013-10-08 16:01:00,
2013-10-08 12:06:00,60.7,50.9,30.16,NNE,18,0.0,2.0,70,0.00,,BKN250,0.00,VWS V14.01,2013-10-08 16:06:00,
2013-10-08 12:11:00,60.7,51.6,30.16,East,81,2.0,2.0,72,0.00,,BKN250,0.00,VWS V14.01,2013-10-08 16:11:00,
2013-10-08 12:21:00,60.5,51.1,30.16,NNE,12,1.0,4.0,71,0.00,,BKN250,0.00,VWS V14.01,2013-10-08 16:21:00,
2013-10-08 12:31:00,60.5,51.1,30.16,North,10,1.0,2.0,71,0.00,,BKN250,0.00,VWS V14.01,2013-10-08 16:31:00,
2013-10-08 12:41:00,60.6,51.5,30.16,North,9,0.0,2.0,72,0.00,,BKN250,0.00,VWS V14.01,2013-10-08 16:41:00,
2013-10-08 12:46:00,60.8,52.1,30.17,NNE,30,1.0,1.0,73,0.00,,BKN250,0.00,VWS V14.01,2013-10-08 16:46:00,
2013-10-08 12:51:00,60.9,51.5,30.17,North,11,0.0,3.0,71,0.00,,BKN250,0.00,VWS V14.01,2013-10-08 16:51:00,
2013-10-08 12:56:00,60.9,51.5,30.17,North,8,1.0,2.0,71,0.00,,BKN250,0.00,VWS V14.01,2013-10-08 16:56:00,
2013-10-08 13:01:00,61.0,52.3,30.17,NNW,329,1.0,2.0,73,0.00,,BKN250,0.00,VWS V14.01,2013-10-08 17:01:00,
2013-10-08 13:06:00,61.0,51.5,30.17,North,11,1.0,2.0,71,0.00,,BKN250,0.00,VWS V14.01,2013-10-08 17:06:00,
2013-10-08 13:11:00,61.0,51.5,30.16,North,6,1.0,2.0,71,0.00,,BKN250,0.00,VWS V14.01,2013-10-08 17:11:00,
2013-10-08 13:16:00,61.1,52.0,30.16,North,11,0.0,4.0,72,0.00,,BKN250,0.00,VWS V14.01,2013-10-08 17:16:00,
2013-10-08 13:26:00,61.1,52.0,30.16,NNE,16,2.0,2.0,72,0.00,,BKN250,0.00,VWS V14.01,2013-10-08 17:26:00,
2013-10-08 13:31:00,61.0,51.9,30.16,North,11,0.0,2.0,72,0.00,,BKN250,0.00,VWS V14.01,2013-10-08 17:31:00,
2013-10-08 13:36:00,61.0,51.9,30.16,NNE,22,0.0,2.0,72,0.00,,BKN250,0.00,VWS V14.01,2013-10-08 17:36:00,
2013-10-08 13:41:00,61.1,52.4,30.15,NNE,33,0.0,1.0,73,0.00,,BKN250,0.00,VWS V14.01,2013-10-08 17:41:00,
2013-10-08 13:46:00,61.1,52.4,30.15,NNE,33,0.0,1.0,73,0.00,,BKN250,0.00,VWS V14.01,2013-10-08 17:46:00,
2013-10-08 13:51:00,61.1,52.4,30.14,North,357,0.0,2.0,73,0.00,,BKN250,0.00,VWS V14.01,2013-10-08 17:51:00,
2013-10-08 14:01:00,61.3,52.2,30.14,North,8,1.0,2.0,72,0.00,,BKN250,0.00,VWS V14.01,2013-10-08 18:01:00,
2013-10-08 14:06:00,61.3,52.2,30.15,North,8,0.0,2.0,72,0.00,,BKN250,0.00,VWS V14.01,2013-10-08 18:06:00,
2013-10-08 14:11:00,61.4,52.7,30.14,NW,320,0.0,1.0,73,0.00,,BKN250,0.00,VWS V14.01,2013-10-08 18:11:00,
2013-10-08 14:16:00,61.4,52.3,30.14,NNE,20,0.0,2.0,72,0.00,,BKN250,0.00,VWS V14.01,2013-10-08 18:16:00,
2013-10-08 14:21:00,61.3,51.8,30.14,North,11,0.0,7.0,71,0.00,,BKN250,0.00,VWS V14.01,2013-10-08 18:21:00,
2013-10-08 14:26:00,61.3,52.6,30.14,East,79,0.0,2.0,73,0.00,,BKN250,0.00,VWS V14.01,2013-10-08 18:26:00,
2013-10-08 14:31:00,61.2,52.1,30.15,North,11,0.0,2.0,72,0.00,,BKN250,0.00,VWS V14.01,2013-10-08 18:31:00,
2013-10-08 14:36:00,61.2,52.5,30.14,North,11,0.0,2.0,73,0.00,,BKN250,0.00,VWS V14.01,2013-10-08 18:36:00,
2013-10-08 14:41:00,61.2,52.9,30.14,North,11,0.0,2.0,74,0.00,,BKN250,0.00,VWS V14.01,2013-10-08 18:41:00,
2013-10-08 14:46:00,61.3,52.6,30.14,ENE,62,2.0,2.0,73,0.00,,BKN250,0.00,VWS V14.01,2013-10-08 18:46:00,
2013-10-08 14:51:00,61.3,53.0,30.15,NNE,13,0.0,3.0,74,0.00,,BKN250,0.00,VWS V14.01,2013-10-08 18:51:00,
2013-10-08 14:56:00,61.3,53.0,30.14,NNE,13,0.0,2.0,74,0.00,,BKN250,0.00,VWS V14.01,2013-10-08 18:56:00,
2013-10-08 15:01:00,61.2,52.5,30.14,WNW,297,1.0,2.0,73,0.00,,BKN250,0.00,VWS V14.01,2013-10-08 19:01:00,
2013-10-08 15:06:00,61.1,52.0,30.14,NNE,14,1.0,4.0,72,0.00,,BKN250,0.00,VWS V14.01,2013-10-08 19:06:00,
2013-10-08 15:11:00,61.1,52.4,30.14,North,11,0.0,4.0,73,0.00,,BKN250,0.00,VWS V14.01,2013-10-08 19:11:00,
2013-10-08 15:16:00,61.1,52.0,30.14,NNE,13,1.0,2.0,72,0.00,,BKN250,0.00,VWS V14.01,2013-10-08 19:16:00,
2013-10-08 15:21:00,61.1,52.4,30.14,NNE,19,0.0,3.0,73,0.00,,BKN250,0.00,VWS V14.01,2013-10-08 19:21:00,
2013-10-08 15:26:00,61.1,52.8,30.14,East,85,0.0,2.0,74,0.00,,BKN250,0.00,VWS V14.01,2013-10-08 19:26:00,
2013-10-08 15:31:00,61.1,53.1,30.15,North,5,2.0,2.0,75,0.00,,BKN250,0.00,VWS V14.01,2013-10-08 19:31:00,
2013-10-08 15:36:00,61.1,52.8,30.15,North,6,0.0,2.0,74,0.00,,BKN250,0.00,VWS V14.01,2013-10-08 19:36:00,
2013-10-08 15:41:00,61.1,52.8,30.15,NNE,12,2.0,2.0,74,0.00,,BKN250,0.00,VWS V14.01,2013-10-08 19:41:00,
2013-10-08 15:46:00,61.0,52.3,30.15,North,2,0.0,2.0,73,0.00,,BKN250,0.00,VWS V14.01,2013-10-08 19:46:00,
2013-10-08 15:51:00,61.0,52.7,30.15,NNE,23,0.0,5.0,74,0.00,,BKN250,0.00,VWS V14.01,2013-10-08 19:51:00,
2013-10-08 15:56:00,60.9,52.2,30.15,North,2,1.0,2.0,73,0.00,,BKN250,0.00,VWS V14.01,2013-10-08 19:56:00,
2013-10-08 16:01:00,60.9,52.9,30.15,North,1,1.0,2.0,75,0.00,,BKN250,0.00,VWS V14.01,2013-10-08 20:01:00,
2013-10-08 16:06:00,60.8,52.5,30.15,SW,225,0.0,1.0,74,0.00,,BKN250,0.00,VWS V14.01,2013-10-08 20:06:00,
2013-10-08 16:11:00,60.7,52.4,30.15,NNE,15,0.0,2.0,74,0.00,,BKN250,0.00,VWS V14.01,2013-10-08 20:11:00,
2013-10-08 16:16:00,60.7,52.0,30.15,NNE,20,2.0,4.0,73,0.00,,BKN250,0.00,VWS V14.01,2013-10-08 20:16:00,
2013-10-08 16:21:00,60.7,52.0,30.15,North,9,1.0,4.0,73,0.00,,BKN250,0.00,VWS V14.01,2013-10-08 20:21:00,
2013-10-08 16:26:00,60.6,52.3,30.16,North,4,1.0,1.0,74,0.00,,BKN250,0.00,VWS V14.01,2013-10-08 20:26:00,
2013-10-08 16:36:00,60.5,52.5,30.16,NNE,16,1.0,2.0,75,0.00,,BKN250,0.00,VWS V14.01,2013-10-08 20:36:00,
2013-10-08 16:41:00,60.5,52.5,30.15,North,6,0.0,2.0,75,0.00,,BKN250,0.00,VWS V14.01,2013-10-08 20:41:00,
2013-10-08 16:46:00,60.3,52.3,30.16,NNE,17,0.0,4.0,75,0.00,,BKN250,0.00,VWS V14.01,2013-10-08 20:46:00,
2013-10-08 16:51:00,60.2,52.6,30.16,North,3,0.0,2.0,76,0.00,,BKN250,0.00,VWS V14.01,2013-10-08 20:51:00,
2013-10-08 16:56:00,60.1,52.5,30.16,North,3,0.0,1.0,76,0.00,,BKN250,0.00,VWS V14.01,2013-10-08 20:56:00,
2013-10-08 17:01:00,60.1,52.5,30.16,North,4,0.0,1.0,76,0.00,,BKN250,0.00,VWS V14.01,2013-10-08 21:01:00,
2013-10-08 17:06:00,60.0,52.8,30.16,NNE,19,0.0,2.0,77,0.00,,BKN250,0.00,VWS V14.01,2013-10-08 21:06:00,
2013-10-08 17:11:00,59.9,53.0,30.17,NNE,15,0.0,2.0,78,0.00,,BKN250,0.00,VWS V14.01,2013-10-08 21:11:00,
2013-10-08 17:16:00,59.6,52.7,30.17,NNE,14,0.0,3.0,78,0.00,,BKN250,0.00,VWS V14.01,2013-10-08 21:16:00,
2013-10-08 17:21:00,59.3,53.1,30.16,NNE,14,0.0,1.0,80,0.00,,BKN250,0.00,VWS V14.01,2013-10-08 21:21:00,
2013-10-08 17:26:00,59.1,53.6,30.16,NNE,14,0.0,0.0,82,0.00,,BKN250,0.00,VWS V14.01,2013-10-08 21:26:00,
2013-10-08 17:31:00,58.9,53.4,30.16,NNE,14,0.0,1.0,82,0.00,,BKN250,0.00,VWS V14.01,2013-10-08 21:31:00,
2013-10-08 17:36:00,58.8,53.7,30.16,NNE,14,0.0,1.0,83,0.00,,BKN250,0.00,VWS V14.01,2013-10-08 21:36:00,
2013-10-08 17:41:00,58.8,53.3,30.16,NNE,14,0.0,1.0,82,0.00,,BKN250,0.00,VWS V14.01,2013-10-08 21:41:00,
2013-10-08 17:46:00,58.8,53.0,30.16,NNE,14,0.0,1.0,81,0.00,,BKN250,0.00,VWS V14.01,2013-10-08 21:46:00,
2013-10-08 17:51:00,58.8,53.0,30.16,NNE,14,0.0,1.0,81,0.00,,BKN250,0.00,VWS V14.01,2013-10-08 21:51:00,
2013-10-08 17:56:00,58.7,53.2,30.16,North,354,0.0,1.0,82,0.00,,BKN250,0.00,VWS V14.01,2013-10-08 21:56:00,
2013-10-08 18:01:00,58.5,53.0,30.17,North,354,2.0,2.0,82,0.00,,BKN250,0.00,VWS V14.01,2013-10-08 22:01:00,
2013-10-08 18:06:00,58.3,52.8,30.16,North,8,0.0,2.0,82,0.00,,BKN250,0.00,VWS V14.01,2013-10-08 22:06:00,
2013-10-08 18:16:00,58.1,52.6,30.16,North,4,0.0,2.0,82,0.00,,BKN250,0.00,VWS V14.01,2013-10-08 22:16:00,
2013-10-08 18:21:00,58.0,52.5,30.17,North,5,1.0,2.0,82,0.00,,BKN250,0.00,VWS V14.01,2013-10-08 22:21:00,
2013-10-08 18:26:00,57.9,52.5,30.17,North,5,1.0,1.0,82,0.00,,BKN250,0.00,VWS V14.01,2013-10-08 22:26:00,
2013-10-08 18:31:00,57.9,52.8,30.17,North,5,0.0,1.0,83,0.00,,BKN250,0.00,VWS V14.01,2013-10-08 22:31:00,
2013-10-08 18:36:00,57.8,52.7,30.17,North,4,0.0,1.0,83,0.00,,BKN250,0.00,VWS V14.01,2013-10-08 22:36:00,
2013-10-08 18:41:00,57.8,52.7,30.17,North,4,0.0,0.0,83,0.00,,BKN250,0.00,VWS V14.01,2013-10-08 22:41:00,
2013-10-08 18:51:00,57.7,52.6,30.17,NNE,22,0.0,1.0,83,0.00,,BKN250,0.00,VWS V14.01,2013-10-08 22:51:00,
2013-10-08 18:56:00,57.7,52.6,30.17,NNE,22,0.0,1.0,83,0.00,,BKN250,0.00,VWS V14.01,2013-10-08 22:56:00,
2013-10-08 19:01:00,57.8,52.7,30.17,NNE,22,0.0,0.0,83,0.00,,BKN250,0.00,VWS V14.01,2013-10-08 23:01:00,
2013-10-08 19:06:00,57.7,52.2,30.17,NNE,22,0.0,1.0,82,0.00,,BKN250,0.00,VWS V14.01,2013-10-08 23:06:00,
2013-10-08 19:16:00,57.8,52.3,30.18,NNE,20,0.0,2.0,82,0.00,,BKN250,0.00,VWS V14.01,2013-10-08 23:16:00,
2013-10-08 19:21:00,57.8,52.0,30.18,NNE,17,0.0,2.0,81,0.00,,BKN250,0.00,VWS V14.01,2013-10-08 23:21:00,
2013-10-08 19:26:00,57.9,52.1,30.17,NNE,17,0.0,1.0,81,0.00,,BKN250,0.00,VWS V14.01,2013-10-08 23:26:00,
2013-10-08 19:31:00,58.0,52.2,30.18,NNE,17,0.0,1.0,81,0.00,,BKN250,0.00,VWS V14.01,2013-10-08 23:31:00,
2013-10-08 19:36:00,58.0,52.2,30.18,NNE,17,0.0,1.0,81,0.00,,BKN250,0.00,VWS V14.01,2013-10-08 23:36:00,
2013-10-08 19:41:00,58.1,52.3,30.18,NNW,343,0.0,1.0,81,0.00,,BKN250,0.00,VWS V14.01,2013-10-08 23:41:00,
2013-10-08 19:46:00,58.1,52.3,30.17,NNW,343,1.0,1.0,81,0.00,,BKN250,0.00,VWS V14.01,2013-10-08 23:46:00,
2013-10-08 19:51:00,58.1,52.0,30.17,North,358,0.0,1.0,80,0.00,,BKN250,0.00,VWS V14.01,2013-10-08 23:51:00,
2013-10-08 19:56:00,58.2,52.1,30.17,North,358,0.0,1.0,80,0.00,,BKN250,0.00,VWS V14.01,2013-10-08 23:56:00,
2013-10-08 20:01:00,58.2,52.1,30.17,North,355,0.0,1.0,80,0.00,,BKN250,0.00,VWS V14.01,2013-10-09 00:01:00,
2013-10-08 20:11:00,58.3,52.2,30.17,North,355,0.0,1.0,80,0.00,,BKN250,0.00,VWS V14.01,2013-10-09 00:11:00,
2013-10-08 20:16:00,58.3,51.8,30.17,North,358,0.0,2.0,79,0.00,,BKN250,0.00,VWS V14.01,2013-10-09 00:16:00,
2013-10-08 20:21:00,58.4,51.9,30.17,North,3,0.0,2.0,79,0.00,,BKN250,0.00,VWS V14.01,2013-10-09 00:21:00,
2013-10-08 20:26:00,58.4,51.9,30.17,East,82,0.0,1.0,79,0.00,,BKN250,0.00,VWS V14.01,2013-10-09 00:26:00,
2013-10-08 20:31:00,58.5,52.0,30.17,North,3,0.0,2.0,79,0.00,,BKN250,0.00,VWS V14.01,2013-10-09 00:31:00,
2013-10-08 20:36:00,58.6,51.8,30.17,North,6,0.0,3.0,78,0.00,,BKN250,0.00,VWS V14.01,2013-10-09 00:36:00,
2013-10-08 20:41:00,58.6,51.8,30.17,North,7,0.0,0.0,78,0.00,,BKN250,0.00,VWS V14.01,2013-10-09 00:41:00,
2013-10-08 20:46:00,58.6,51.8,30.17,North,6,0.0,0.0,78,0.00,,BKN250,0.00,VWS V14.01,2013-10-09 00:46:00,
2013-10-08 20:51:00,58.6,51.4,30.18,North,4,0.0,2.0,77,0.00,,BKN250,0.00,VWS V14.01,2013-10-09 00:51:00,
2013-10-08 20:56:00,58.8,51.6,30.18,North,4,0.0,2.0,77,0.00,,OVC055,0.00,VWS V14.01,2013-10-09 00:56:00,
2013-10-08 21:06:00,58.9,51.4,30.18,North,4,0.0,2.0,76,0.00,,OVC055,0.00,VWS V14.01,2013-10-09 01:06:00,
2013-10-08 21:16:00,59.0,51.5,30.18,North,4,0.0,1.0,76,0.00,,OVC055,0.00,VWS V14.01,2013-10-09 01:16:00,
2013-10-08 21:21:00,59.0,51.5,30.18,North,4,1.0,1.0,76,0.00,,OVC055,0.00,VWS V14.01,2013-10-09 01:21:00,
2013-10-08 21:26:00,59.0,51.5,30.18,North,3,0.0,2.0,76,0.00,,OVC055,0.00,VWS V14.01,2013-10-09 01:26:00,
2013-10-08 21:31:00,59.0,51.5,30.18,North,4,0.0,2.0,76,0.00,,OVC055,0.00,VWS V14.01,2013-10-09 01:31:00,
2013-10-08 21:36:00,59.0,51.5,30.18,North,4,0.0,1.0,76,0.00,,OVC055,0.00,VWS V14.01,2013-10-09 01:36:00,
2013-10-08 21:41:00,59.0,51.5,30.19,North,360,0.0,1.0,76,0.00,,OVC055,0.00,VWS V14.01,2013-10-09 01:41:00,
2013-10-08 21:46:00,59.1,51.5,30.18,North,356,0.0,2.0,76,0.00,,OVC055,0.00,VWS V14.01,2013-10-09 01:46:00,
2013-10-08 21:56:00,59.0,51.5,30.19,ENE,74,1.0,1.0,76,0.00,,OVC042,0.00,VWS V14.01,2013-10-09 01:56:00,
2013-10-08 22:01:00,59.0,51.8,30.19,East,87,0.0,1.0,77,0.00,,OVC042,0.00,VWS V14.01,2013-10-09 02:01:00,
2013-10-08 22:06:00,59.0,51.5,30.19,East,86,0.0,1.0,76,0.00,,OVC042,0.00,VWS V14.01,2013-10-09 02:06:00,
2013-10-08 22:11:00,59.0,51.5,30.18,NNW,330,0.0,2.0,76,0.00,,OVC042,0.00,VWS V14.01,2013-10-09 02:11:00,
2013-10-08 22:21:00,59.1,51.5,30.19,North,360,0.0,2.0,76,0.00,,OVC042,0.00,VWS V14.01,2013-10-09 02:21:00,
2013-10-08 22:26:00,59.1,51.5,30.18,North,359,0.0,1.0,76,0.00,,OVC042,0.00,VWS V14.01,2013-10-09 02:26:00,
2013-10-08 22:31:00,59.1,51.5,30.18,North,8,0.0,2.0,76,0.00,,OVC042,0.00,VWS V14.01,2013-10-09 02:31:00,
2013-10-08 22:36:00,59.1,51.9,30.18,North,8,1.0,1.0,77,0.00,,OVC042,0.00,VWS V14.01,2013-10-09 02:36:00,
2013-10-08 22:41:00,59.1,51.5,30.18,North,8,0.0,2.0,76,0.00,,OVC042,0.00,VWS V14.01,2013-10-09 02:41:00,
2013-10-08 22:51:00,59.1,51.5,30.18,North,9,0.0,2.0,76,0.00,,OVC042,0.00,VWS V14.01,2013-10-09 02:51:00,
2013-10-08 22:56:00,59.1,51.5,30.19,North,9,0.0,1.0,76,0.00,,OVC044,0.00,VWS V14.01,2013-10-09 02:56:00,
2013-10-08 23:01:00,59.1,51.9,30.19,North,8,0.0,1.0,77,0.00,,OVC044,0.00,VWS V14.01,2013-10-09 03:01:00,
2013-10-08 23:06:00,59.1,51.5,30.18,North,11,0.0,2.0,76,0.00,,OVC044,0.00,VWS V14.01,2013-10-09 03:06:00,
2013-10-08 23:11:00,59.1,51.5,30.18,NNE,23,0.0,2.0,76,0.00,,OVC044,0.00,VWS V14.01,2013-10-09 03:11:00,
2013-10-08 23:16:00,59.1,51.5,30.18,NNE,23,0.0,1.0,76,0.00,,OVC044,0.00,VWS V14.01,2013-10-09 03:16:00,
2013-10-08 23:21:00,59.1,51.9,30.18,NW,322,0.0,1.0,77,0.00,,OVC044,0.00,VWS V14.01,2013-10-09 03:21:00,
2013-10-08 23:26:00,59.1,51.9,30.18,North,10,3.0,3.0,77,0.00,,OVC044,0.00,VWS V14.01,2013-10-09 03:26:00,
2013-10-08 23:31:00,59.1,51.5,30.18,North,7,3.0,3.0,76,0.00,,OVC044,0.00,VWS V14.01,2013-10-09 03:31:00,
2013-10-08 23:36:00,59.1,51.9,30.18,North,8,0.0,3.0,77,0.00,,OVC044,0.00,VWS V14.01,2013-10-09 03:36:00,
2013-10-08 23:41:00,59.1,51.9,30.17,WSW,253,1.0,2.0,77,0.00,,OVC044,0.00,VWS V14.01,2013-10-09 03:41:00,
2013-10-08 23:46:00,59.1,51.9,30.18,North,9,1.0,3.0,77,0.00,,OVC044,0.00,VWS V14.01,2013-10-09 03:46:00,
2013-10-08 23:51:00,59.1,51.9,30.17,North,11,0.0,2.0,77,0.00,,OVC044,0.00,VWS V14.01,2013-10-09 03:51:00,
2013-10-08 23:56:00,59.1,52.3,30.17,North,4,0.0,2.0,78,0.00,,OVC042,0.00,VWS V14.01,2013-10-09 03:56:00,